createdAt,value
2018-02-24T00:00:21.751Z,89.56
2018-02-24T00:02:49.325Z,89.73
2018-02-24T00:05:16.925Z,89.88
2018-02-24T00:07:44.567Z,89.73
2018-02-24T00:10:12.147Z,89.54
2018-02-24T00:12:39.785Z,89.77
2018-02-24T00:15:07.416Z,89.68
2018-02-24T00:17:35.054Z,89.62
2018-02-24T00:20:02.678Z,89.67
2018-02-24T00:22:30.390Z,89.41
2018-02-24T00:24:57.960Z,89.50
2018-02-24T00:27:25.538Z,89.28
2018-02-24T00:29:53.174Z,89.25
2018-02-24T00:32:20.759Z,89.07
2018-02-24T00:34:48.349Z,88.73
2018-02-24T00:37:15.989Z,88.76
2018-02-24T00:39:43.574Z,88.76
2018-02-24T00:42:11.212Z,88.65
2018-02-24T00:44:38.919Z,88.58
2018-02-24T00:47:06.530Z,88.52
2018-02-24T00:49:34.117Z,88.25
2018-02-24T00:52:01.761Z,88.34
2018-02-24T00:54:29.366Z,88.38
2018-02-24T00:56:56.974Z,88.32
2018-02-24T00:59:24.641Z,88.41
2018-02-24T01:01:52.231Z,88.58
2018-02-24T01:04:19.870Z,88.58
2018-02-24T01:06:47.511Z,88.61
2018-02-24T01:09:15.086Z,89.13
2018-02-24T01:11:42.710Z,89.40
2018-02-24T01:14:10.414Z,89.61
2018-02-24T01:16:38.050Z,89.73
2018-02-24T01:19:05.680Z,89.94
2018-02-24T01:21:33.384Z,90.24
2018-02-24T01:24:01.015Z,90.38
2018-02-24T01:26:28.589Z,90.51
2018-02-24T01:28:56.272Z,90.46
2018-02-24T01:31:23.905Z,90.68
2018-02-24T01:33:51.474Z,90.74
2018-02-24T01:36:19.103Z,90.84
2018-02-24T01:38:46.733Z,91.05
2018-02-24T01:41:14.390Z,91.23
2018-02-24T01:43:42.269Z,91.51
2018-02-24T01:46:09.846Z,91.61
2018-02-24T01:48:37.432Z,91.66
2018-02-24T01:51:05.041Z,91.81
2018-02-24T01:53:32.612Z,92.28
2018-02-24T01:56:00.190Z,92.33
2018-02-24T01:58:27.828Z,92.34
2018-02-24T02:00:55.419Z,92.21
2018-02-24T02:03:22.994Z,91.87
2018-02-24T02:05:50.627Z,91.90
2018-02-24T02:08:18.211Z,91.77
2018-02-24T02:10:45.787Z,91.56
2018-02-24T02:13:13.431Z,91.46
2018-02-24T02:15:41.073Z,91.46
2018-02-24T02:18:08.650Z,91.32
2018-02-24T02:20:36.349Z,91.00
2018-02-24T02:23:03.923Z,90.73
2018-02-24T02:25:31.499Z,90.82
2018-02-24T02:27:59.136Z,90.57
2018-02-24T02:30:26.705Z,90.35
2018-02-24T02:32:54.296Z,90.36
2018-02-24T02:35:21.947Z,90.12
2018-02-24T02:37:49.600Z,90.00
2018-02-24T02:40:17.234Z,89.82
2018-02-24T02:42:44.931Z,89.71
2018-02-24T02:45:12.508Z,89.36
2018-02-24T02:47:40.084Z,88.90
2018-02-24T02:50:07.819Z,89.00
2018-02-24T02:52:35.391Z,89.04
2018-02-24T02:55:02.972Z,88.80
2018-02-24T02:57:30.651Z,88.70
2018-02-24T02:59:58.210Z,88.59
2018-02-24T03:02:25.790Z,88.78
2018-02-24T03:04:53.427Z,88.60
2018-02-24T03:07:20.995Z,88.62
2018-02-24T03:09:48.615Z,88.67
2018-02-24T03:12:16.250Z,88.85
2018-02-24T03:14:43.889Z,89.01
2018-02-24T03:17:11.475Z,89.02
2018-02-24T03:19:39.157Z,88.90
2018-02-24T03:22:06.775Z,89.04
2018-02-24T03:24:34.405Z,89.56
2018-02-24T03:27:02.104Z,90.17
2018-02-24T03:29:29.756Z,90.24
2018-02-24T03:31:57.386Z,90.47
2018-02-24T03:34:25.021Z,90.48
2018-02-24T03:36:52.655Z,90.63
2018-02-24T03:39:20.283Z,90.68
2018-02-24T03:41:47.954Z,90.57
2018-02-24T03:44:15.553Z,90.59
2018-02-24T03:46:43.128Z,90.73
2018-02-24T03:49:10.758Z,90.71
2018-02-24T03:51:38.344Z,90.62
2018-02-24T03:54:05.972Z,90.96
2018-02-24T03:56:33.607Z,90.92
2018-02-24T03:59:01.179Z,91.06
2018-02-24T04:01:28.747Z,91.16
2018-02-24T04:03:56.379Z,91.22
2018-02-24T04:06:23.994Z,91.16
2018-02-24T04:08:51.583Z,91.35
2018-02-24T04:11:19.263Z,91.36
2018-02-24T04:13:46.816Z,91.48
2018-02-24T04:16:14.393Z,91.31
2018-02-24T04:18:42.029Z,91.39
2018-02-24T04:21:09.604Z,91.43
2018-02-24T04:23:37.173Z,91.76
2018-02-24T04:26:04.869Z,91.83
2018-02-24T04:28:32.500Z,91.95
2018-02-24T04:31:00.064Z,92.10
2018-02-24T04:33:27.771Z,92.04
2018-02-24T04:35:55.414Z,92.23
2018-02-24T04:38:22.986Z,92.22
2018-02-24T04:40:50.676Z,92.08
2018-02-24T04:43:18.316Z,92.10
2018-02-24T04:45:45.891Z,92.15
2018-02-24T04:48:13.540Z,92.13
2018-02-24T04:50:41.180Z,92.26
2018-02-24T04:53:08.756Z,92.47
2018-02-24T04:55:36.417Z,92.39
2018-02-24T04:58:03.991Z,92.15
2018-02-24T05:00:31.607Z,91.89
2018-02-24T05:02:59.287Z,91.77
2018-02-24T05:08:08.860Z,91.83
2018-02-24T05:10:36.442Z,91.88
2018-02-24T05:13:04.024Z,91.94
2018-02-24T05:15:31.699Z,91.97
2018-02-24T05:17:59.331Z,91.70
2018-02-24T05:20:26.913Z,91.40
2018-02-24T05:22:54.543Z,91.34
2018-02-24T05:25:22.262Z,91.46
2018-02-24T05:27:49.915Z,91.42
2018-02-24T05:30:17.534Z,91.48
2018-02-24T05:32:45.164Z,91.64
2018-02-24T05:35:12.808Z,91.59
2018-02-24T05:37:40.441Z,91.49
2018-02-24T05:40:08.067Z,91.76
2018-02-24T05:42:35.643Z,91.74
2018-02-24T05:45:03.335Z,91.92
2018-02-24T05:47:30.972Z,91.74
2018-02-24T05:49:58.534Z,91.66
2018-02-24T05:52:26.165Z,91.61
2018-02-24T05:54:53.845Z,91.46
2018-02-24T05:57:21.435Z,91.40
2018-02-24T05:59:49.135Z,91.33
2018-02-24T06:02:16.712Z,91.60
2018-02-24T06:04:44.298Z,91.50
2018-02-24T06:07:11.929Z,91.54
2018-02-24T06:09:39.498Z,91.56
2018-02-24T06:12:07.047Z,91.76
2018-02-24T06:14:34.734Z,91.80
2018-02-24T06:17:02.310Z,91.41
2018-02-24T06:19:29.873Z,91.33
2018-02-24T06:21:57.569Z,91.14
2018-02-24T06:24:25.197Z,90.96
2018-02-24T06:26:52.813Z,90.11
2018-02-24T06:29:20.450Z,90.07
2018-02-24T06:31:48.149Z,90.11
2018-02-24T06:34:16.533Z,89.79
2018-02-24T06:36:44.322Z,89.34
2018-02-24T06:39:12.128Z,89.15
2018-02-24T06:41:39.842Z,88.96
2018-02-24T06:44:07.548Z,88.75
2018-02-24T06:46:35.600Z,88.47
2018-02-24T06:49:03.291Z,88.83
2018-02-24T06:51:31.129Z,88.40
2018-02-24T06:53:58.789Z,88.24
2018-02-24T06:56:26.528Z,88.37
2018-02-24T06:58:54.249Z,88.65
2018-02-24T07:01:21.890Z,88.85
2018-02-24T07:03:49.453Z,88.65
2018-02-24T07:06:17.084Z,88.60
2018-02-24T07:08:44.729Z,88.49
2018-02-24T07:11:12.310Z,88.49
2018-02-24T07:13:39.950Z,88.05
2018-02-24T07:16:08.119Z,87.63
2018-02-24T07:18:35.686Z,87.70
2018-02-24T07:21:03.411Z,87.33
2018-02-24T07:23:30.984Z,87.09
2018-02-24T07:25:58.563Z,87.06
2018-02-24T07:28:26.285Z,86.70
2018-02-24T07:30:53.840Z,86.88
2018-02-24T07:33:21.467Z,87.15
2018-02-24T07:35:49.104Z,87.03
2018-02-24T07:38:16.682Z,86.99
2018-02-24T07:40:44.255Z,86.77
2018-02-24T07:43:11.844Z,86.70
2018-02-24T07:45:39.450Z,85.84
2018-02-24T07:48:07.018Z,85.37
2018-02-24T07:50:34.674Z,85.17
2018-02-24T07:53:02.248Z,84.99
2018-02-24T07:55:29.898Z,84.85
2018-02-24T07:57:57.474Z,84.78
2018-02-24T08:00:25.103Z,84.75
2018-02-24T08:02:52.791Z,84.95
2018-02-24T08:05:20.395Z,85.00
2018-02-24T08:07:47.957Z,84.88
2018-02-24T08:10:15.540Z,84.48
2018-02-24T08:12:43.114Z,84.45
2018-02-24T08:15:10.804Z,83.65
2018-02-24T08:17:38.369Z,83.46
2018-02-24T08:20:05.943Z,83.49
2018-02-24T08:22:33.519Z,83.18
2018-02-24T08:25:01.151Z,83.20
2018-02-24T08:27:28.767Z,84.90
2018-02-24T08:29:56.395Z,84.89
2018-02-24T08:32:23.963Z,83.42
2018-02-24T08:34:51.517Z,83.32
2018-02-24T08:37:19.172Z,82.59
2018-02-24T08:39:47.208Z,81.90
2018-02-24T08:42:14.795Z,82.07
2018-02-24T08:44:42.387Z,82.02
2018-02-24T08:47:09.982Z,82.54
2018-02-24T08:49:37.565Z,82.23
2018-02-24T08:52:05.190Z,82.00
2018-02-24T08:54:32.764Z,82.29
2018-02-24T08:57:00.391Z,82.14
2018-02-24T08:59:27.974Z,82.03
2018-02-24T09:01:55.541Z,81.89
2018-02-24T09:04:23.174Z,81.92
2018-02-24T09:06:50.743Z,81.82
2018-02-24T09:09:18.384Z,82.92
2018-02-24T09:11:45.970Z,82.34
2018-02-24T09:14:13.540Z,81.77
2018-02-24T09:16:41.277Z,82.00
2018-02-24T09:19:08.884Z,80.76
2018-02-24T09:21:36.515Z,80.63
2018-02-24T09:24:04.105Z,80.95
2018-02-24T09:26:31.693Z,81.26
2018-02-24T09:28:59.318Z,81.66
2018-02-24T09:31:26.948Z,81.35
2018-02-24T09:33:54.534Z,81.29
2018-02-24T09:36:22.114Z,81.00
2018-02-24T09:38:49.713Z,80.65
2018-02-24T09:41:17.345Z,81.10
2018-02-24T09:43:44.979Z,81.74
2018-02-24T09:46:12.558Z,81.15
2018-02-24T09:48:40.185Z,81.26
2018-02-24T09:51:07.819Z,81.64
2018-02-24T09:53:35.500Z,81.21
2018-02-24T09:56:03.101Z,82.17
2018-02-24T09:58:30.710Z,82.27
2018-02-24T10:00:58.295Z,81.99
2018-02-24T10:03:25.860Z,82.70
2018-02-24T10:05:53.617Z,82.09
2018-02-24T10:08:21.221Z,82.66
2018-02-24T10:10:48.787Z,82.47
2018-02-24T10:13:16.419Z,82.28
2018-02-24T10:15:43.986Z,82.40
2018-02-24T10:18:11.608Z,82.35
2018-02-24T10:20:39.159Z,82.91
2018-02-24T10:23:06.722Z,83.38
2018-02-24T10:25:34.294Z,83.82
2018-02-24T10:28:01.854Z,83.23
2018-02-24T10:30:30.454Z,82.67
2018-02-24T10:32:58.034Z,82.69
2018-02-24T10:35:25.674Z,83.12
2018-02-24T10:37:53.255Z,83.67
2018-02-24T10:40:20.827Z,83.80
2018-02-24T10:42:48.458Z,83.15
2018-02-24T10:45:16.029Z,83.39
2018-02-24T10:47:43.604Z,83.34
2018-02-24T10:50:11.257Z,83.31
2018-02-24T10:52:38.836Z,83.14
2018-02-24T10:55:06.510Z,82.96
2018-02-24T10:57:34.774Z,82.21
2018-02-24T11:00:02.404Z,82.09
2018-02-24T11:02:30.065Z,81.96
2018-02-24T11:04:57.634Z,82.41
2018-02-24T11:07:25.268Z,82.13
2018-02-24T11:09:52.838Z,82.97
2018-02-24T11:12:20.429Z,82.60
2018-02-24T11:14:48.019Z,82.97
2018-02-24T11:17:15.605Z,82.39
2018-02-24T11:19:43.284Z,82.39
2018-02-24T11:22:10.859Z,81.62
2018-02-24T11:24:38.503Z,81.65
2018-02-24T11:27:06.144Z,82.29
2018-02-24T11:29:33.739Z,82.18
2018-02-24T11:32:01.377Z,82.34
2018-02-24T11:34:29.127Z,82.32
2018-02-24T11:36:56.794Z,81.89
2018-02-24T11:39:29.967Z,82.37
2018-02-24T11:41:57.542Z,82.05
2018-02-24T11:44:25.183Z,82.16
2018-02-24T11:46:53.886Z,81.68
2018-02-24T11:49:21.470Z,81.88
2018-02-24T11:51:49.226Z,81.84
2018-02-24T11:54:16.790Z,81.81
2018-02-24T11:56:44.446Z,81.81
2018-02-24T11:59:12.243Z,82.40
2018-02-24T12:01:39.806Z,82.34
2018-02-24T12:04:07.390Z,81.93
2018-02-24T12:06:35.059Z,81.72
2018-02-24T12:09:02.686Z,81.41
2018-02-24T12:11:30.312Z,81.70
2018-02-24T12:13:57.942Z,81.56
2018-02-24T12:16:25.517Z,82.33
2018-02-24T12:18:53.140Z,82.95
2018-02-24T12:21:20.762Z,82.82
2018-02-24T12:23:48.330Z,83.27
2018-02-24T12:26:15.962Z,82.84
2018-02-24T12:28:43.510Z,82.56
2018-02-24T12:31:11.095Z,82.66
2018-02-24T12:33:39.698Z,82.72
2018-02-24T12:36:07.324Z,82.42
2018-02-24T12:38:34.988Z,82.25
2018-02-24T12:41:02.582Z,82.39
2018-02-24T12:43:30.155Z,82.70
2018-02-24T12:45:57.863Z,82.64
2018-02-24T12:48:25.463Z,82.44
2018-02-24T12:50:53.033Z,82.74
2018-02-24T12:53:20.613Z,82.20
2018-02-24T12:55:48.196Z,81.91
2018-02-24T12:58:15.826Z,82.34
2018-02-24T13:00:43.433Z,81.97
2018-02-24T13:03:11.028Z,81.84
2018-02-24T13:05:39.749Z,82.60
2018-02-24T13:08:07.375Z,82.74
2018-02-24T13:10:34.992Z,82.77
2018-02-24T13:13:02.558Z,82.79
2018-02-24T13:15:30.188Z,83.12
2018-02-24T13:17:57.758Z,83.41
2018-02-24T13:20:25.384Z,83.37
2018-02-24T13:22:53.059Z,83.08
2018-02-24T13:25:21.362Z,83.34
2018-02-24T13:27:49.006Z,83.02
2018-02-24T13:30:16.583Z,82.54
2018-02-24T13:32:44.187Z,82.51
2018-02-24T13:35:11.803Z,82.25
2018-02-24T13:37:39.476Z,82.02
2018-02-24T13:40:07.255Z,81.64
2018-02-24T13:42:34.853Z,81.85
2018-02-24T13:45:02.541Z,82.21
2018-02-24T13:47:30.223Z,83.26
2018-02-24T13:49:57.892Z,83.17
2018-02-24T13:52:25.558Z,83.52
2018-02-24T13:54:53.147Z,83.33
2018-02-24T13:57:20.859Z,82.95
2018-02-24T13:59:48.494Z,83.47
2018-02-24T14:02:16.076Z,84.06
2018-02-24T14:04:43.988Z,84.47
2018-02-24T14:07:11.659Z,85.41
2018-02-24T14:09:39.233Z,85.74
2018-02-24T14:12:07.797Z,86.54
2018-02-24T14:14:35.389Z,86.95
2018-02-24T14:17:03.195Z,87.25
2018-02-24T14:19:30.882Z,87.49
2018-02-24T14:21:58.458Z,87.77
2018-02-24T14:24:26.439Z,87.82
2018-02-24T14:26:54.011Z,88.54
2018-02-24T14:29:21.591Z,88.86
2018-02-24T14:31:49.214Z,89.04
2018-02-24T14:34:16.860Z,89.60
2018-02-24T14:36:44.640Z,89.91
2018-02-24T14:39:12.257Z,90.08
2018-02-24T14:41:39.826Z,90.46
2018-02-24T14:44:07.417Z,90.20
2018-02-24T14:46:35.431Z,90.96
2018-02-24T14:49:03.075Z,91.04
2018-02-24T14:51:30.704Z,91.04
2018-02-24T14:53:58.278Z,91.07
2018-02-24T14:56:26.048Z,91.13
2018-02-24T14:58:53.816Z,91.12
2018-02-24T15:01:21.485Z,90.67
2018-02-24T15:03:49.093Z,90.88
2018-02-24T15:06:16.811Z,91.07
2018-02-24T15:08:44.627Z,90.95
2018-02-24T15:11:12.280Z,90.95
2018-02-24T15:13:39.980Z,90.65
2018-02-24T15:16:07.620Z,90.44
2018-02-24T15:18:35.252Z,90.27
2018-02-24T15:21:02.940Z,90.38
2018-02-24T15:23:33.034Z,90.45
2018-02-24T15:26:00.659Z,90.40
2018-02-24T15:28:28.293Z,90.29
2018-02-24T15:30:55.871Z,90.42
2018-02-24T15:33:23.455Z,90.48
2018-02-24T15:35:51.070Z,90.56
2018-02-24T15:38:18.739Z,90.66
2018-02-24T15:40:46.377Z,90.03
2018-02-24T15:43:13.959Z,90.34
2018-02-24T15:45:41.551Z,90.31
2018-02-24T15:48:09.169Z,90.08
2018-02-24T15:50:36.836Z,90.16
2018-02-24T15:53:04.458Z,90.06
2018-02-24T15:55:32.050Z,90.31
2018-02-24T15:57:59.624Z,90.05
2018-02-24T16:00:27.199Z,90.18
2018-02-24T16:02:54.826Z,90.42
2018-02-24T16:05:22.403Z,90.32
2018-02-24T16:07:49.995Z,90.34
2018-02-24T16:10:17.583Z,90.27
2018-02-24T16:12:45.206Z,89.88
2018-02-24T16:15:12.938Z,89.95
2018-02-24T16:17:40.579Z,89.82
2018-02-24T16:20:08.173Z,89.90
2018-02-24T16:22:35.843Z,89.96
2018-02-24T16:25:03.498Z,89.68
2018-02-24T16:27:31.199Z,89.44
2018-02-24T16:29:58.835Z,89.47
2018-02-24T16:32:26.409Z,89.59
2018-02-24T16:34:54.003Z,89.70
2018-02-24T16:37:21.704Z,90.02
2018-02-24T16:39:49.407Z,90.45
2018-02-24T16:42:16.970Z,90.42
2018-02-24T16:44:44.696Z,90.40
2018-02-24T16:47:12.295Z,90.48
2018-02-24T16:49:39.866Z,90.65
2018-02-24T16:52:07.494Z,90.47
2018-02-24T16:54:35.078Z,90.45
2018-02-24T16:57:02.645Z,90.67
2018-02-24T16:59:30.229Z,90.47
2018-02-24T17:01:57.780Z,90.62
2018-02-24T17:04:25.392Z,90.48
2018-02-24T17:06:52.985Z,90.43
2018-02-24T17:09:20.541Z,90.46
2018-02-24T17:11:48.181Z,90.48
2018-02-24T17:14:15.753Z,90.46
2018-02-24T17:16:43.444Z,90.81
2018-02-24T17:19:11.020Z,90.83
2018-02-24T17:21:38.591Z,90.86
2018-02-24T17:24:06.183Z,91.06
2018-02-24T17:26:33.752Z,91.17
2018-02-24T17:29:01.379Z,91.08
2018-02-24T17:31:28.951Z,91.06
2018-02-24T17:33:56.579Z,90.77
2018-02-24T17:36:24.220Z,90.48
2018-02-24T17:38:51.832Z,90.63
2018-02-24T17:41:19.459Z,90.90
2018-02-24T17:43:47.031Z,91.11
2018-02-24T17:46:14.615Z,91.42
2018-02-24T17:48:42.252Z,91.33
2018-02-24T17:51:09.884Z,91.38
2018-02-24T17:53:37.573Z,91.52
2018-02-24T17:56:05.334Z,91.42
2018-02-24T17:58:32.946Z,91.35
2018-02-24T18:01:00.544Z,91.10
2018-02-24T18:03:28.158Z,91.03
2018-02-24T18:05:55.812Z,91.12
2018-02-24T18:08:23.396Z,90.91
2018-02-24T18:10:50.988Z,90.98
2018-02-24T18:13:18.626Z,91.09
2018-02-24T18:15:46.352Z,91.10
2018-02-24T18:18:13.994Z,91.24
2018-02-24T18:20:41.624Z,91.49
2018-02-24T18:23:09.278Z,91.47
2018-02-24T18:25:36.854Z,91.17
2018-02-24T18:28:04.421Z,91.26
2018-02-24T18:30:32.053Z,91.27
2018-02-24T18:32:59.622Z,91.41
2018-02-24T18:35:27.251Z,91.37
2018-02-24T18:37:54.883Z,91.44
2018-02-24T18:40:22.459Z,91.31
2018-02-24T18:42:50.034Z,91.26
2018-02-24T18:45:17.667Z,91.31
2018-02-24T18:47:45.406Z,91.61
2018-02-24T18:50:13.067Z,91.72
2018-02-24T18:52:41.440Z,91.74
2018-02-24T18:55:09.073Z,91.68
2018-02-24T18:57:36.776Z,91.66
2018-02-24T19:00:04.551Z,91.94
2018-02-24T19:02:32.146Z,91.91
2018-02-24T19:04:59.732Z,91.97
2018-02-24T19:07:27.306Z,92.24
2018-02-24T19:09:54.877Z,92.26
2018-02-24T19:12:22.538Z,92.13
2018-02-24T19:14:50.099Z,92.11
2018-02-24T19:17:17.767Z,91.68
2018-02-24T19:19:45.435Z,91.56
2018-02-24T19:22:13.063Z,91.75
2018-02-24T19:24:40.787Z,91.65
2018-02-24T19:27:08.411Z,91.53
2018-02-24T19:29:36.071Z,91.70
2018-02-24T19:32:03.656Z,91.87
2018-02-24T19:34:31.333Z,91.94
2018-02-24T19:36:58.976Z,91.88
2018-02-24T19:39:26.538Z,92.00
2018-02-24T19:41:54.106Z,92.07
2018-02-24T19:44:21.744Z,91.95
2018-02-24T19:46:49.310Z,91.87
2018-02-24T19:49:16.945Z,91.15
2018-02-24T19:51:44.578Z,90.99
2018-02-24T19:54:12.189Z,90.95
2018-02-24T19:56:39.763Z,90.85
2018-02-24T19:59:07.335Z,90.81
2018-02-24T20:01:34.978Z,90.79
2018-02-24T20:04:02.611Z,90.74
2018-02-24T20:06:30.292Z,90.85
2018-02-24T20:08:57.936Z,90.65
2018-02-24T20:11:25.498Z,90.62
2018-02-24T20:13:55.479Z,90.91
2018-02-24T20:16:23.108Z,91.12
2018-02-24T20:18:50.699Z,91.19
2018-02-24T20:21:18.275Z,91.26
2018-02-24T20:23:45.857Z,91.41
2018-02-24T20:26:16.178Z,91.75
2018-02-24T20:28:43.756Z,91.68
2018-02-24T20:31:11.330Z,91.77
2018-02-24T20:33:38.977Z,91.70
2018-02-24T20:36:06.527Z,91.62
2018-02-24T20:38:34.221Z,91.76
2018-02-24T20:41:01.787Z,91.62
2018-02-24T20:43:29.353Z,91.46
2018-02-24T20:45:56.979Z,91.44
2018-02-24T20:48:24.621Z,91.45
2018-02-24T20:50:52.242Z,91.69
2018-02-24T20:53:19.802Z,91.84
2018-02-24T20:55:47.424Z,91.90
2018-02-24T20:58:15.036Z,91.89
2018-02-24T21:00:42.598Z,91.85
2018-02-24T21:03:10.296Z,91.81
2018-02-24T21:05:37.916Z,91.82
2018-02-24T21:08:05.543Z,91.58
2018-02-24T21:10:33.122Z,91.43
2018-02-24T21:13:00.767Z,91.41
2018-02-24T21:15:28.532Z,91.29
2018-02-24T21:17:56.114Z,90.56
2018-02-24T21:20:23.679Z,90.37
2018-02-24T21:22:51.235Z,90.04
2018-02-24T21:25:18.799Z,90.21
2018-02-24T21:27:46.418Z,90.25
2018-02-24T21:30:14.039Z,90.13
2018-02-24T21:32:41.707Z,89.99
2018-02-24T21:35:09.322Z,90.00
2018-02-24T21:37:36.881Z,90.49
2018-02-24T21:40:04.502Z,89.65
2018-02-24T21:42:32.104Z,89.36
2018-02-24T21:44:59.656Z,89.63
2018-02-24T21:47:27.288Z,89.65
2018-02-24T21:49:55.779Z,89.51
2018-02-24T21:52:23.414Z,88.50
2018-02-24T21:54:50.976Z,88.72
2018-02-24T21:57:18.643Z,89.44
2018-02-24T22:02:22.268Z,89.01
2018-02-24T22:04:49.965Z,89.52
2018-02-24T22:07:17.661Z,88.89
2018-02-24T22:09:45.312Z,87.29
2018-02-24T22:12:12.888Z,88.04
2018-02-24T22:14:40.458Z,88.71
2018-02-24T22:17:08.100Z,88.62
2018-02-24T22:19:35.670Z,88.44
2018-02-24T22:22:03.238Z,88.98
2018-02-24T22:24:30.875Z,89.04
2018-02-24T22:26:58.455Z,88.90
2018-02-24T22:29:26.087Z,89.32
2018-02-24T22:31:53.711Z,89.29
2018-02-24T22:34:21.347Z,89.56
2018-02-24T22:36:48.926Z,89.99
2018-02-24T22:39:16.508Z,89.55
2018-02-24T22:41:44.204Z,89.58
2018-02-24T22:44:11.779Z,89.54
2018-02-24T22:46:39.355Z,89.22
2018-02-24T22:49:06.931Z,89.33
2018-02-24T22:51:34.556Z,89.55
2018-02-24T22:54:02.212Z,89.82
2018-02-24T22:56:29.835Z,89.84
2018-02-24T22:58:57.473Z,89.99
2018-02-24T23:01:25.089Z,89.99
2018-02-24T23:03:52.652Z,89.91
2018-02-24T23:06:20.344Z,90.42
